DTTF/GAF METAR and TAF weather

Enter ICAO airport designator
Station Type Date Time Source
DTTF METAR 2019/06/26 16:00 UTC NOAA

DTTF 261600Z 17008KT 140V200 9999 FEW026 38/11 Q1013 NOSIG


Station Type Date Time Source
DTTF Decoded METAR 2019/06/26 16:00 UTC NOAA

Gafsa, Tunisia (DTTF) 34-25N 008-49E 314M
Jun 26, 2019 - 12:00 PM EDT / 2019.06.26 1600 UTC
Wind: from the S (170 degrees) at 9 MPH (8 KT) (direction variable):0
Visibility: greater than 7 mile(s):0
Sky conditions: mostly clear
Temperature: 100 F (38 C)
Heat index: 97.2 F (36.2 C):1
Dew Point: 51 F (11 C)
Relative Humidity: 19%
Pressure (altimeter): 29.91 in. Hg (1013 hPa)
ob: DTTF 261600Z 17008KT 140V200 9999 FEW026 38/11 Q1013 NOSIG
cycle: 16

Station Type Date Time Source
DTTF TAF 2018/07/22 13:33 UTC NOAA

TAF DTTF 221200Z 2213/2322 22010KT 7000 NSC PROB30
TEMPO 2216/2220 4000 -TSRA FEW026CB

Example: see airport list